Great Falls (GTF/KGTF)

Map

Destinations

Information

Location
Great Falls , MT
Local Time
21:25 / 9:25 pm
GMT Time
03:25 / 3:25 am
Gates
Unassigned
No FAA reported delays
METAR KGTF 260253Z 30007KT 10SM FEW050 BKN090 OVC120 09/04 A2987 RMK AO2 RAB33E46 SLP119 P0000 60000 T00890039 51014
TAF KGTF 252320Z 2600/2624 33014G23KT P6SM -SHRA SCT070 BKN090 FM260400 32006KT P6SM SCT060 BKN090 FM261100 25007KT P6SM SCT030 BKN090